sensor_id;sensor_type;location;lat;lon;timestamp;P1;durP1;ratioP1;P2;durP2;ratioP2
67278;SDS011;54193;53.746;10.058;2022-07-10T00:00:54;6.13;;;1.00;;
67278;SDS011;54193;53.746;10.058;2022-07-10T00:03:40;4.03;;;0.90;;
67278;SDS011;54193;53.746;10.058;2022-07-10T00:06:26;7.15;;;0.90;;
67278;SDS011;54193;53.746;10.058;2022-07-10T00:09:11;5.00;;;0.88;;
67278;SDS011;54193;53.746;10.058;2022-07-10T00:11:58;3.95;;;1.13;;
67278;SDS011;54193;53.746;10.058;2022-07-10T00:14:46;4.15;;;1.10;;
67278;SDS011;54193;53.746;10.058;2022-07-10T00:17:32;5.63;;;0.90;;
67278;SDS011;54193;53.746;10.058;2022-07-10T00:20:18;3.03;;;0.70;;
67278;SDS011;54193;53.746;10.058;2022-07-10T00:23:04;4.10;;;0.77;;
67278;SDS011;54193;53.746;10.058;2022-07-10T00:25:49;4.13;;;0.90;;
67278;SDS011;54193;53.746;10.058;2022-07-10T00:28:36;5.68;;;0.85;;
67278;SDS011;54193;53.746;10.058;2022-07-10T00:31:22;5.70;;;1.10;;
67278;SDS011;54193;53.746;10.058;2022-07-10T00:34:07;6.78;;;0.90;;
67278;SDS011;54193;53.746;10.058;2022-07-10T00:36:53;5.47;;;0.95;;
67278;SDS011;54193;53.746;10.058;2022-07-10T00:39:39;4.90;;;0.85;;
67278;SDS011;54193;53.746;10.058;2022-07-10T00:42:25;6.05;;;1.10;;
67278;SDS011;54193;53.746;10.058;2022-07-10T00:45:11;7.90;;;1.30;;
67278;SDS011;54193;53.746;10.058;2022-07-10T00:47:56;5.03;;;0.80;;
67278;SDS011;54193;53.746;10.058;2022-07-10T00:50:42;5.63;;;1.00;;
67278;SDS011;54193;53.746;10.058;2022-07-10T00:53:29;4.65;;;1.02;;
67278;SDS011;54193;53.746;10.058;2022-07-10T00:56:16;6.55;;;1.33;;
67278;SDS011;54193;53.746;10.058;2022-07-10T00:59:03;8.33;;;1.20;;
67278;SDS011;54193;53.746;10.058;2022-07-10T01:01:49;5.15;;;1.10;;
67278;SDS011;54193;53.746;10.058;2022-07-10T01:04:36;4.50;;;0.90;;
67278;SDS011;54193;53.746;10.058;2022-07-10T01:07:21;6.40;;;1.08;;
67278;SDS011;54193;53.746;10.058;2022-07-10T01:10:07;5.47;;;1.00;;
67278;SDS011;54193;53.746;10.058;2022-07-10T01:12:55;5.07;;;1.00;;
67278;SDS011;54193;53.746;10.058;2022-07-10T01:15:40;4.97;;;1.10;;
67278;SDS011;54193;53.746;10.058;2022-07-10T01:18:26;7.57;;;1.30;;
67278;SDS011;54193;53.746;10.058;2022-07-10T01:21:28;5.00;;;1.20;;
67278;SDS011;54193;53.746;10.058;2022-07-10T01:24:15;4.22;;;1.30;;
67278;SDS011;54193;53.746;10.058;2022-07-10T01:27:01;7.57;;;1.20;;
67278;SDS011;54193;53.746;10.058;2022-07-10T01:29:47;3.42;;;1.02;;
67278;SDS011;54193;53.746;10.058;2022-07-10T01:32:36;5.82;;;1.42;;
67278;SDS011;54193;53.746;10.058;2022-07-10T01:35:25;5.25;;;1.00;;
67278;SDS011;54193;53.746;10.058;2022-07-10T01:38:11;8.48;;;1.35;;
67278;SDS011;54193;53.746;10.058;2022-07-10T01:40:56;7.50;;;1.10;;
67278;SDS011;54193;53.746;10.058;2022-07-10T01:43:43;8.52;;;1.20;;
67278;SDS011;54193;53.746;10.058;2022-07-10T01:46:30;9.18;;;1.42;;
67278;SDS011;54193;53.746;10.058;2022-07-10T01:49:15;6.60;;;1.30;;
67278;SDS011;54193;53.746;10.058;2022-07-10T01:52:01;5.22;;;1.30;;
67278;SDS011;54193;53.746;10.058;2022-07-10T01:54:47;7.53;;;1.60;;
67278;SDS011;54193;53.746;10.058;2022-07-10T01:57:33;5.95;;;1.27;;
67278;SDS011;54193;53.746;10.058;2022-07-10T02:00:19;7.63;;;1.50;;
67278;SDS011;54193;53.746;10.058;2022-07-10T02:03:05;10.27;;;1.60;;
67278;SDS011;54193;53.746;10.058;2022-07-10T02:06:09;6.43;;;1.50;;
67278;SDS011;54193;53.746;10.058;2022-07-10T02:08:55;4.73;;;1.30;;
67278;SDS011;54193;53.746;10.058;2022-07-10T02:11:40;7.47;;;1.80;;
67278;SDS011;54193;53.746;10.058;2022-07-10T02:14:26;7.85;;;1.80;;
67278;SDS011;54193;53.746;10.058;2022-07-10T02:17:12;6.63;;;1.45;;
67278;SDS011;54193;53.746;10.058;2022-07-10T02:19:58;11.20;;;1.67;;
67278;SDS011;54193;53.746;10.058;2022-07-10T02:22:43;9.73;;;1.50;;
67278;SDS011;54193;53.746;10.058;2022-07-10T02:25:29;7.13;;;1.35;;
67278;SDS011;54193;53.746;10.058;2022-07-10T02:28:16;10.18;;;1.90;;
67278;SDS011;54193;53.746;10.058;2022-07-10T02:31:01;11.93;;;1.92;;
67278;SDS011;54193;53.746;10.058;2022-07-10T02:33:47;5.20;;;1.70;;
67278;SDS011;54193;53.746;10.058;2022-07-10T02:36:33;6.23;;;1.80;;
67278;SDS011;54193;53.746;10.058;2022-07-10T02:39:19;6.80;;;1.73;;
67278;SDS011;54193;53.746;10.058;2022-07-10T02:42:05;9.43;;;2.03;;
67278;SDS011;54193;53.746;10.058;2022-07-10T02:44:51;9.13;;;1.90;;
67278;SDS011;54193;53.746;10.058;2022-07-10T02:47:36;8.57;;;1.70;;
67278;SDS011;54193;53.746;10.058;2022-07-10T02:50:22;8.10;;;1.90;;
67278;SDS011;54193;53.746;10.058;2022-07-10T02:53:08;8.80;;;2.03;;
67278;SDS011;54193;53.746;10.058;2022-07-10T02:55:55;6.03;;;2.10;;
67278;SDS011;54193;53.746;10.058;2022-07-10T02:58:40;8.55;;;1.92;;
67278;SDS011;54193;53.746;10.058;2022-07-10T03:01:27;7.35;;;1.90;;
67278;SDS011;54193;53.746;10.058;2022-07-10T03:04:13;9.47;;;2.27;;
67278;SDS011;54193;53.746;10.058;2022-07-10T03:06:59;9.82;;;2.17;;
67278;SDS011;54193;53.746;10.058;2022-07-10T03:09:45;7.32;;;1.95;;
67278;SDS011;54193;53.746;10.058;2022-07-10T03:12:30;10.07;;;2.10;;
67278;SDS011;54193;53.746;10.058;2022-07-10T03:15:16;6.80;;;2.00;;
67278;SDS011;54193;53.746;10.058;2022-07-10T03:18:02;7.10;;;1.77;;
67278;SDS011;54193;53.746;10.058;2022-07-10T03:20:47;9.45;;;2.10;;
67278;SDS011;54193;53.746;10.058;2022-07-10T03:23:33;8.60;;;2.08;;
67278;SDS011;54193;53.746;10.058;2022-07-10T03:26:19;11.45;;;2.42;;
67278;SDS011;54193;53.746;10.058;2022-07-10T03:29:04;11.55;;;1.92;;
67278;SDS011;54193;53.746;10.058;2022-07-10T03:31:50;9.30;;;2.13;;
67278;SDS011;54193;53.746;10.058;2022-07-10T03:34:36;7.90;;;1.90;;
67278;SDS011;54193;53.746;10.058;2022-07-10T03:37:22;10.85;;;1.92;;
67278;SDS011;54193;53.746;10.058;2022-07-10T03:40:07;7.80;;;2.08;;
67278;SDS011;54193;53.746;10.058;2022-07-10T03:42:54;9.20;;;2.22;;
67278;SDS011;54193;53.746;10.058;2022-07-10T03:45:39;7.60;;;2.07;;
67278;SDS011;54193;53.746;10.058;2022-07-10T03:48:25;9.43;;;2.13;;
67278;SDS011;54193;53.746;10.058;2022-07-10T03:51:11;8.88;;;2.30;;
67278;SDS011;54193;53.746;10.058;2022-07-10T03:53:57;11.40;;;2.70;;
67278;SDS011;54193;53.746;10.058;2022-07-10T03:56:42;10.07;;;2.10;;
67278;SDS011;54193;53.746;10.058;2022-07-10T03:59:46;8.17;;;2.23;;
67278;SDS011;54193;53.746;10.058;2022-07-10T04:02:32;14.50;;;2.40;;
67278;SDS011;54193;53.746;10.058;2022-07-10T04:05:18;11.10;;;2.42;;
67278;SDS011;54193;53.746;10.058;2022-07-10T04:08:03;12.45;;;2.53;;
67278;SDS011;54193;53.746;10.058;2022-07-10T04:10:50;7.65;;;2.33;;
67278;SDS011;54193;53.746;10.058;2022-07-10T04:13:36;14.57;;;2.43;;
67278;SDS011;54193;53.746;10.058;2022-07-10T04:16:22;11.65;;;2.38;;
67278;SDS011;54193;53.746;10.058;2022-07-10T04:19:10;10.10;;;2.47;;
67278;SDS011;54193;53.746;10.058;2022-07-10T04:21:55;13.15;;;2.60;;
67278;SDS011;54193;53.746;10.058;2022-07-10T04:24:41;7.78;;;2.10;;
67278;SDS011;54193;53.746;10.058;2022-07-10T04:27:27;12.47;;;2.70;;
67278;SDS011;54193;53.746;10.058;2022-07-10T04:30:13;10.80;;;2.28;;
67278;SDS011;54193;53.746;10.058;2022-07-10T04:32:58;10.35;;;2.40;;
67278;SDS011;54193;53.746;10.058;2022-07-10T04:35:44;11.20;;;2.17;;
67278;SDS011;54193;53.746;10.058;2022-07-10T04:38:30;13.63;;;2.40;;
67278;SDS011;54193;53.746;10.058;2022-07-10T04:41:17;10.87;;;2.50;;
67278;SDS011;54193;53.746;10.058;2022-07-10T04:44:02;10.13;;;2.38;;
67278;SDS011;54193;53.746;10.058;2022-07-10T04:46:49;11.55;;;2.55;;
67278;SDS011;54193;53.746;10.058;2022-07-10T04:49:35;11.75;;;2.85;;
67278;SDS011;54193;53.746;10.058;2022-07-10T04:52:20;13.98;;;2.63;;
67278;SDS011;54193;53.746;10.058;2022-07-10T04:55:06;14.73;;;3.00;;
67278;SDS011;54193;53.746;10.058;2022-07-10T04:57:52;12.93;;;2.40;;
67278;SDS011;54193;53.746;10.058;2022-07-10T05:00:38;9.48;;;2.30;;
67278;SDS011;54193;53.746;10.058;2022-07-10T05:03:23;9.57;;;2.30;;
67278;SDS011;54193;53.746;10.058;2022-07-10T05:06:09;13.02;;;2.80;;
67278;SDS011;54193;53.746;10.058;2022-07-10T05:08:55;12.20;;;2.80;;
67278;SDS011;54193;53.746;10.058;2022-07-10T05:11:41;11.98;;;2.53;;
67278;SDS011;54193;53.746;10.058;2022-07-10T05:14:26;13.77;;;2.50;;
67278;SDS011;54193;53.746;10.058;2022-07-10T05:17:12;11.32;;;2.60;;
67278;SDS011;54193;53.746;10.058;2022-07-10T05:19:58;9.00;;;2.50;;
67278;SDS011;54193;53.746;10.058;2022-07-10T05:22:43;7.67;;;2.03;;
67278;SDS011;54193;53.746;10.058;2022-07-10T05:25:29;15.15;;;2.38;;
67278;SDS011;54193;53.746;10.058;2022-07-10T05:28:15;11.80;;;2.80;;
67278;SDS011;54193;53.746;10.058;2022-07-10T05:31:01;13.50;;;2.85;;
67278;SDS011;54193;53.746;10.058;2022-07-10T05:33:47;13.93;;;2.67;;
67278;SDS011;54193;53.746;10.058;2022-07-10T05:36:32;12.97;;;3.03;;
67278;SDS011;54193;53.746;10.058;2022-07-10T05:39:18;8.77;;;2.30;;
67278;SDS011;54193;53.746;10.058;2022-07-10T05:42:04;11.00;;;2.53;;
67278;SDS011;54193;53.746;10.058;2022-07-10T05:44:50;9.93;;;2.38;;
67278;SDS011;54193;53.746;10.058;2022-07-10T05:47:35;9.27;;;2.33;;
67278;SDS011;54193;53.746;10.058;2022-07-10T05:50:21;11.13;;;2.50;;
67278;SDS011;54193;53.746;10.058;2022-07-10T05:53:07;11.45;;;2.28;;
67278;SDS011;54193;53.746;10.058;2022-07-10T05:55:52;11.35;;;2.05;;
67278;SDS011;54193;53.746;10.058;2022-07-10T05:58:38;12.35;;;2.50;;
67278;SDS011;54193;53.746;10.058;2022-07-10T06:01:24;9.18;;;1.98;;
67278;SDS011;54193;53.746;10.058;2022-07-10T06:04:11;8.57;;;2.33;;
67278;SDS011;54193;53.746;10.058;2022-07-10T06:06:57;11.90;;;2.45;;
67278;SDS011;54193;53.746;10.058;2022-07-10T06:09:43;10.27;;;2.20;;
67278;SDS011;54193;53.746;10.058;2022-07-10T06:12:28;10.32;;;2.15;;
67278;SDS011;54193;53.746;10.058;2022-07-10T06:15:14;11.30;;;2.22;;
67278;SDS011;54193;53.746;10.058;2022-07-10T06:17:59;11.13;;;2.10;;
67278;SDS011;54193;53.746;10.058;2022-07-10T06:20:45;15.35;;;2.67;;
67278;SDS011;54193;53.746;10.058;2022-07-10T06:23:31;8.55;;;1.77;;
67278;SDS011;54193;53.746;10.058;2022-07-10T06:26:16;8.20;;;2.00;;
67278;SDS011;54193;53.746;10.058;2022-07-10T06:29:02;14.57;;;3.07;;
67278;SDS011;54193;53.746;10.058;2022-07-10T06:31:48;9.10;;;2.10;;
67278;SDS011;54193;53.746;10.058;2022-07-10T06:34:34;10.95;;;2.33;;
67278;SDS011;54193;53.746;10.058;2022-07-10T06:37:19;13.35;;;2.10;;
67278;SDS011;54193;53.746;10.058;2022-07-10T06:40:06;10.50;;;2.00;;
67278;SDS011;54193;53.746;10.058;2022-07-10T06:42:52;9.83;;;2.63;;
67278;SDS011;54193;53.746;10.058;2022-07-10T06:45:38;9.93;;;2.40;;
67278;SDS011;54193;53.746;10.058;2022-07-10T06:48:25;8.02;;;2.03;;
67278;SDS011;54193;53.746;10.058;2022-07-10T06:51:15;11.30;;;2.28;;
67278;SDS011;54193;53.746;10.058;2022-07-10T06:54:01;10.02;;;2.30;;
67278;SDS011;54193;53.746;10.058;2022-07-10T06:56:46;9.30;;;1.80;;
67278;SDS011;54193;53.746;10.058;2022-07-10T06:59:32;7.18;;;1.80;;
67278;SDS011;54193;53.746;10.058;2022-07-10T07:02:18;7.75;;;1.92;;
67278;SDS011;54193;53.746;10.058;2022-07-10T07:05:04;11.05;;;2.00;;
67278;SDS011;54193;53.746;10.058;2022-07-10T07:07:51;9.00;;;1.65;;
67278;SDS011;54193;53.746;10.058;2022-07-10T07:10:38;12.67;;;2.23;;
67278;SDS011;54193;53.746;10.058;2022-07-10T07:13:23;7.47;;;1.70;;
67278;SDS011;54193;53.746;10.058;2022-07-10T07:16:09;10.75;;;1.73;;
67278;SDS011;54193;53.746;10.058;2022-07-10T07:18:55;6.57;;;1.65;;
67278;SDS011;54193;53.746;10.058;2022-07-10T07:21:42;6.30;;;1.70;;
67278;SDS011;54193;53.746;10.058;2022-07-10T07:24:46;7.63;;;1.40;;
67278;SDS011;54193;53.746;10.058;2022-07-10T07:27:32;5.85;;;1.30;;
67278;SDS011;54193;53.746;10.058;2022-07-10T07:30:19;6.47;;;1.50;;
67278;SDS011;54193;53.746;10.058;2022-07-10T07:33:05;4.35;;;1.40;;
67278;SDS011;54193;53.746;10.058;2022-07-10T07:35:51;6.13;;;2.78;;
67278;SDS011;54193;53.746;10.058;2022-07-10T07:38:36;6.63;;;1.10;;
67278;SDS011;54193;53.746;10.058;2022-07-10T07:41:22;8.63;;;1.70;;
67278;SDS011;54193;53.746;10.058;2022-07-10T07:44:08;10.70;;;8.27;;
67278;SDS011;54193;53.746;10.058;2022-07-10T07:46:55;10.30;;;9.30;;
67278;SDS011;54193;53.746;10.058;2022-07-10T07:49:41;3.83;;;1.30;;
67278;SDS011;54193;53.746;10.058;2022-07-10T07:52:27;5.63;;;1.53;;
67278;SDS011;54193;53.746;10.058;2022-07-10T07:55:13;6.88;;;1.00;;
67278;SDS011;54193;53.746;10.058;2022-07-10T07:58:00;5.30;;;1.20;;
67278;SDS011;54193;53.746;10.058;2022-07-10T08:00:46;6.20;;;1.38;;
67278;SDS011;54193;53.746;10.058;2022-07-10T08:03:32;9.57;;;1.42;;
67278;SDS011;54193;53.746;10.058;2022-07-10T08:06:18;7.13;;;2.07;;
67278;SDS011;54193;53.746;10.058;2022-07-10T08:09:04;6.07;;;1.65;;
67278;SDS011;54193;53.746;10.058;2022-07-10T08:11:49;15.48;;;12.98;;
67278;SDS011;54193;53.746;10.058;2022-07-10T08:14:35;10.32;;;4.90;;
67278;SDS011;54193;53.746;10.058;2022-07-10T08:17:21;9.20;;;1.27;;
67278;SDS011;54193;53.746;10.058;2022-07-10T08:20:07;6.83;;;1.40;;
67278;SDS011;54193;53.746;10.058;2022-07-10T08:22:56;6.03;;;1.13;;
67278;SDS011;54193;53.746;10.058;2022-07-10T08:25:42;5.50;;;1.65;;
67278;SDS011;54193;53.746;10.058;2022-07-10T08:28:28;10.20;;;1.50;;
67278;SDS011;54193;53.746;10.058;2022-07-10T08:31:13;9.32;;;1.60;;
67278;SDS011;54193;53.746;10.058;2022-07-10T08:33:59;6.00;;;1.37;;
67278;SDS011;54193;53.746;10.058;2022-07-10T08:36:45;4.78;;;1.30;;
67278;SDS011;54193;53.746;10.058;2022-07-10T08:39:30;6.93;;;1.35;;
67278;SDS011;54193;53.746;10.058;2022-07-10T08:42:17;8.65;;;1.63;;
67278;SDS011;54193;53.746;10.058;2022-07-10T08:45:04;5.10;;;1.58;;
67278;SDS011;54193;53.746;10.058;2022-07-10T08:47:51;6.83;;;1.30;;
67278;SDS011;54193;53.746;10.058;2022-07-10T08:50:38;7.00;;;1.35;;
67278;SDS011;54193;53.746;10.058;2022-07-10T08:53:30;6.22;;;1.67;;
67278;SDS011;54193;53.746;10.058;2022-07-10T08:56:16;8.63;;;1.92;;
67278;SDS011;54193;53.746;10.058;2022-07-10T08:59:02;5.35;;;1.20;;
67278;SDS011;54193;53.746;10.058;2022-07-10T09:01:51;6.03;;;1.15;;
67278;SDS011;54193;53.746;10.058;2022-07-10T09:04:38;4.93;;;1.30;;
67278;SDS011;54193;53.746;10.058;2022-07-10T09:07:24;7.05;;;1.42;;
67278;SDS011;54193;53.746;10.058;2022-07-10T09:10:10;7.65;;;1.30;;
67278;SDS011;54193;53.746;10.058;2022-07-10T09:12:58;5.88;;;1.40;;
67278;SDS011;54193;53.746;10.058;2022-07-10T09:15:50;5.18;;;1.20;;
67278;SDS011;54193;53.746;10.058;2022-07-10T09:18:35;6.23;;;1.47;;
67278;SDS011;54193;53.746;10.058;2022-07-10T09:21:21;4.68;;;1.15;;
67278;SDS011;54193;53.746;10.058;2022-07-10T09:24:08;7.05;;;1.67;;
67278;SDS011;54193;53.746;10.058;2022-07-10T09:27:00;8.10;;;1.67;;
67278;SDS011;54193;53.746;10.058;2022-07-10T09:29:49;4.88;;;1.25;;
67278;SDS011;54193;53.746;10.058;2022-07-10T09:32:40;5.90;;;1.30;;
67278;SDS011;54193;53.746;10.058;2022-07-10T09:35:27;5.38;;;1.17;;
67278;SDS011;54193;53.746;10.058;2022-07-10T09:38:47;7.80;;;1.30;;
67278;SDS011;54193;53.746;10.058;2022-07-10T09:41:35;7.47;;;1.75;;
67278;SDS011;54193;53.746;10.058;2022-07-10T09:44:22;5.70;;;1.27;;
67278;SDS011;54193;53.746;10.058;2022-07-10T09:47:13;6.77;;;1.40;;
67278;SDS011;54193;53.746;10.058;2022-07-10T09:53:18;5.80;;;1.10;;
67278;SDS011;54193;53.746;10.058;2022-07-10T09:56:04;8.38;;;2.10;;
67278;SDS011;54193;53.746;10.058;2022-07-10T09:58:55;7.20;;;1.20;;
67278;SDS011;54193;53.746;10.058;2022-07-10T10:01:46;6.37;;;1.57;;
67278;SDS011;54193;53.746;10.058;2022-07-10T10:04:34;5.03;;;1.50;;
67278;SDS011;54193;53.746;10.058;2022-07-10T10:07:21;8.50;;;1.55;;
67278;SDS011;54193;53.746;10.058;2022-07-10T10:10:08;8.73;;;1.60;;
67278;SDS011;54193;53.746;10.058;2022-07-10T10:12:55;7.18;;;1.65;;
67278;SDS011;54193;53.746;10.058;2022-07-10T10:15:45;6.17;;;1.40;;
67278;SDS011;54193;53.746;10.058;2022-07-10T10:18:32;5.50;;;1.23;;
67278;SDS011;54193;53.746;10.058;2022-07-10T10:21:20;5.22;;;1.20;;
67278;SDS011;54193;53.746;10.058;2022-07-10T10:24:08;8.18;;;1.40;;
67278;SDS011;54193;53.746;10.058;2022-07-10T10:26:55;5.28;;;1.30;;
67278;SDS011;54193;53.746;10.058;2022-07-10T10:29:41;6.10;;;1.10;;
67278;SDS011;54193;53.746;10.058;2022-07-10T10:32:28;6.82;;;1.20;;
67278;SDS011;54193;53.746;10.058;2022-07-10T10:35:41;5.03;;;1.40;;
67278;SDS011;54193;53.746;10.058;2022-07-10T10:41:41;7.03;;;1.25;;
67278;SDS011;54193;53.746;10.058;2022-07-10T10:44:40;4.33;;;1.10;;
67278;SDS011;54193;53.746;10.058;2022-07-10T10:47:25;6.15;;;1.33;;
67278;SDS011;54193;53.746;10.058;2022-07-10T10:50:12;5.05;;;1.17;;
67278;SDS011;54193;53.746;10.058;2022-07-10T10:53:33;5.82;;;1.65;;
67278;SDS011;54193;53.746;10.058;2022-07-10T10:59:04;7.57;;;1.27;;
67278;SDS011;54193;53.746;10.058;2022-07-10T11:02:09;4.43;;;1.00;;
67278;SDS011;54193;53.746;10.058;2022-07-10T11:08:05;7.05;;;1.23;;
67278;SDS011;54193;53.746;10.058;2022-07-10T11:10:52;4.38;;;1.00;;
67278;SDS011;54193;53.746;10.058;2022-07-10T11:13:40;6.83;;;1.30;;
67278;SDS011;54193;53.746;10.058;2022-07-10T11:16:27;5.88;;;1.23;;
67278;SDS011;54193;53.746;10.058;2022-07-10T11:19:12;9.80;;;1.27;;
67278;SDS011;54193;53.746;10.058;2022-07-10T11:22:03;4.93;;;1.13;;
67278;SDS011;54193;53.746;10.058;2022-07-10T11:25:09;4.55;;;1.20;;
67278;SDS011;54193;53.746;10.058;2022-07-10T11:28:05;4.73;;;1.10;;
67278;SDS011;54193;53.746;10.058;2022-07-10T11:30:56;4.07;;;0.90;;
67278;SDS011;54193;53.746;10.058;2022-07-10T11:33:43;8.00;;;1.33;;
67278;SDS011;54193;53.746;10.058;2022-07-10T11:36:31;5.25;;;1.08;;
67278;SDS011;54193;53.746;10.058;2022-07-10T11:39:19;5.55;;;1.27;;
67278;SDS011;54193;53.746;10.058;2022-07-10T11:42:05;4.60;;;1.07;;
67278;SDS011;54193;53.746;10.058;2022-07-10T11:44:53;5.50;;;1.20;;
67278;SDS011;54193;53.746;10.058;2022-07-10T11:47:40;8.00;;;1.20;;
67278;SDS011;54193;53.746;10.058;2022-07-10T11:50:26;9.05;;;1.20;;
67278;SDS011;54193;53.746;10.058;2022-07-10T11:53:25;5.45;;;1.20;;
67278;SDS011;54193;53.746;10.058;2022-07-10T11:56:11;8.03;;;1.40;;
67278;SDS011;54193;53.746;10.058;2022-07-10T11:59:05;3.90;;;1.10;;
67278;SDS011;54193;53.746;10.058;2022-07-10T12:01:53;6.50;;;1.27;;
67278;SDS011;54193;53.746;10.058;2022-07-10T12:04:40;4.28;;;1.00;;
67278;SDS011;54193;53.746;10.058;2022-07-10T12:07:26;5.50;;;1.00;;
67278;SDS011;54193;53.746;10.058;2022-07-10T12:10:11;6.90;;;1.10;;
67278;SDS011;54193;53.746;10.058;2022-07-10T12:13:07;6.70;;;1.10;;
67278;SDS011;54193;53.746;10.058;2022-07-10T12:16:00;7.68;;;1.35;;
67278;SDS011;54193;53.746;10.058;2022-07-10T12:18:46;6.70;;;1.20;;
67278;SDS011;54193;53.746;10.058;2022-07-10T12:21:34;6.93;;;1.40;;
67278;SDS011;54193;53.746;10.058;2022-07-10T12:24:20;5.93;;;1.50;;
67278;SDS011;54193;53.746;10.058;2022-07-10T12:27:06;6.75;;;1.35;;
67278;SDS011;54193;53.746;10.058;2022-07-10T12:30:00;4.60;;;1.10;;
67278;SDS011;54193;53.746;10.058;2022-07-10T12:32:46;5.50;;;1.37;;
67278;SDS011;54193;53.746;10.058;2022-07-10T12:35:32;6.78;;;1.10;;
67278;SDS011;54193;53.746;10.058;2022-07-10T12:38:31;7.25;;;1.30;;
67278;SDS011;54193;53.746;10.058;2022-07-10T12:41:19;6.55;;;1.30;;
67278;SDS011;54193;53.746;10.058;2022-07-10T12:44:09;7.30;;;1.50;;
67278;SDS011;54193;53.746;10.058;2022-07-10T12:47:02;4.60;;;1.17;;
67278;SDS011;54193;53.746;10.058;2022-07-10T12:52:48;5.30;;;1.13;;
67278;SDS011;54193;53.746;10.058;2022-07-10T12:55:34;6.80;;;1.17;;
67278;SDS011;54193;53.746;10.058;2022-07-10T12:58:22;5.80;;;1.10;;
67278;SDS011;54193;53.746;10.058;2022-07-10T13:01:08;4.83;;;1.10;;
67278;SDS011;54193;53.746;10.058;2022-07-10T13:03:57;4.65;;;1.27;;
67278;SDS011;54193;53.746;10.058;2022-07-10T13:06:44;3.85;;;1.20;;
67278;SDS011;54193;53.746;10.058;2022-07-10T13:09:30;4.95;;;1.30;;
67278;SDS011;54193;53.746;10.058;2022-07-10T13:12:15;6.25;;;1.42;;
67278;SDS011;54193;53.746;10.058;2022-07-10T13:15:02;6.70;;;1.17;;
67278;SDS011;54193;53.746;10.058;2022-07-10T13:17:48;7.07;;;1.30;;
67278;SDS011;54193;53.746;10.058;2022-07-10T13:20:34;4.78;;;1.60;;
67278;SDS011;54193;53.746;10.058;2022-07-10T13:23:20;4.40;;;1.23;;
67278;SDS011;54193;53.746;10.058;2022-07-10T13:26:10;4.35;;;1.20;;
67278;SDS011;54193;53.746;10.058;2022-07-10T13:28:56;5.17;;;1.30;;
67278;SDS011;54193;53.746;10.058;2022-07-10T13:31:42;6.10;;;1.30;;
67278;SDS011;54193;53.746;10.058;2022-07-10T13:34:28;7.43;;;1.30;;
67278;SDS011;54193;53.746;10.058;2022-07-10T13:37:14;7.68;;;1.83;;
67278;SDS011;54193;53.746;10.058;2022-07-10T13:40:00;7.50;;;1.58;;
67278;SDS011;54193;53.746;10.058;2022-07-10T13:42:46;7.43;;;1.90;;
67278;SDS011;54193;53.746;10.058;2022-07-10T13:45:33;4.32;;;1.20;;
67278;SDS011;54193;53.746;10.058;2022-07-10T13:48:28;7.65;;;1.40;;
67278;SDS011;54193;53.746;10.058;2022-07-10T13:51:14;5.85;;;1.35;;
67278;SDS011;54193;53.746;10.058;2022-07-10T13:54:02;7.38;;;1.48;;
67278;SDS011;54193;53.746;10.058;2022-07-10T13:56:48;5.27;;;1.47;;
67278;SDS011;54193;53.746;10.058;2022-07-10T13:59:34;8.15;;;3.20;;
67278;SDS011;54193;53.746;10.058;2022-07-10T14:02:19;5.88;;;1.70;;
67278;SDS011;54193;53.746;10.058;2022-07-10T14:05:05;4.40;;;1.35;;
67278;SDS011;54193;53.746;10.058;2022-07-10T14:07:53;8.73;;;1.50;;
67278;SDS011;54193;53.746;10.058;2022-07-10T14:10:38;9.57;;;2.30;;
67278;SDS011;54193;53.746;10.058;2022-07-10T14:13:24;4.90;;;1.40;;
67278;SDS011;54193;53.746;10.058;2022-07-10T14:16:10;6.78;;;1.50;;
67278;SDS011;54193;53.746;10.058;2022-07-10T14:18:56;7.68;;;1.70;;
67278;SDS011;54193;53.746;10.058;2022-07-10T14:21:41;8.15;;;1.60;;
67278;SDS011;54193;53.746;10.058;2022-07-10T14:24:27;7.33;;;1.40;;
67278;SDS011;54193;53.746;10.058;2022-07-10T14:27:13;6.13;;;1.23;;
67278;SDS011;54193;53.746;10.058;2022-07-10T14:29:59;5.60;;;1.42;;
67278;SDS011;54193;53.746;10.058;2022-07-10T14:32:45;6.93;;;1.52;;
67278;SDS011;54193;53.746;10.058;2022-07-10T14:35:31;7.25;;;1.50;;
67278;SDS011;54193;53.746;10.058;2022-07-10T14:38:16;4.83;;;1.10;;
67278;SDS011;54193;53.746;10.058;2022-07-10T14:41:02;5.60;;;1.30;;
67278;SDS011;54193;53.746;10.058;2022-07-10T14:43:49;7.40;;;1.40;;
67278;SDS011;54193;53.746;10.058;2022-07-10T14:46:35;7.35;;;1.58;;
67278;SDS011;54193;53.746;10.058;2022-07-10T14:49:21;7.57;;;1.50;;
67278;SDS011;54193;53.746;10.058;2022-07-10T14:52:06;6.27;;;1.40;;
67278;SDS011;54193;53.746;10.058;2022-07-10T14:54:53;4.97;;;1.45;;
67278;SDS011;54193;53.746;10.058;2022-07-10T14:57:38;6.03;;;1.38;;
67278;SDS011;54193;53.746;10.058;2022-07-10T15:00:24;4.20;;;1.27;;
67278;SDS011;54193;53.746;10.058;2022-07-10T15:03:10;7.43;;;1.60;;
67278;SDS011;54193;53.746;10.058;2022-07-10T15:05:56;6.23;;;1.30;;
67278;SDS011;54193;53.746;10.058;2022-07-10T15:08:42;8.20;;;1.45;;
67278;SDS011;54193;53.746;10.058;2022-07-10T15:11:28;5.82;;;1.50;;
67278;SDS011;54193;53.746;10.058;2022-07-10T15:14:13;8.10;;;1.55;;
67278;SDS011;54193;53.746;10.058;2022-07-10T15:16:59;8.15;;;1.58;;
67278;SDS011;54193;53.746;10.058;2022-07-10T15:19:45;6.50;;;1.40;;
67278;SDS011;54193;53.746;10.058;2022-07-10T15:22:30;5.22;;;1.30;;
67278;SDS011;54193;53.746;10.058;2022-07-10T15:25:18;6.38;;;1.58;;
67278;SDS011;54193;53.746;10.058;2022-07-10T15:28:03;7.15;;;1.40;;
67278;SDS011;54193;53.746;10.058;2022-07-10T15:30:50;5.63;;;1.30;;
67278;SDS011;54193;53.746;10.058;2022-07-10T15:33:36;6.70;;;1.20;;
67278;SDS011;54193;53.746;10.058;2022-07-10T15:36:23;4.07;;;1.10;;
67278;SDS011;54193;53.746;10.058;2022-07-10T15:39:08;3.75;;;1.10;;
67278;SDS011;54193;53.746;10.058;2022-07-10T15:41:54;4.88;;;1.23;;
67278;SDS011;54193;53.746;10.058;2022-07-10T15:44:40;7.32;;;1.70;;
67278;SDS011;54193;53.746;10.058;2022-07-10T15:47:26;6.50;;;1.20;;
67278;SDS011;54193;53.746;10.058;2022-07-10T15:50:11;7.03;;;1.50;;
67278;SDS011;54193;53.746;10.058;2022-07-10T15:52:57;4.97;;;1.48;;
67278;SDS011;54193;53.746;10.058;2022-07-10T15:55:43;5.28;;;1.40;;
67278;SDS011;54193;53.746;10.058;2022-07-10T15:58:28;4.78;;;1.20;;
67278;SDS011;54193;53.746;10.058;2022-07-10T16:01:14;6.57;;;1.20;;
67278;SDS011;54193;53.746;10.058;2022-07-10T16:04:01;4.60;;;1.10;;
67278;SDS011;54193;53.746;10.058;2022-07-10T16:06:46;4.25;;;1.48;;
67278;SDS011;54193;53.746;10.058;2022-07-10T16:09:34;7.15;;;1.40;;
67278;SDS011;54193;53.746;10.058;2022-07-10T16:12:20;5.22;;;1.40;;
67278;SDS011;54193;53.746;10.058;2022-07-10T16:15:06;5.15;;;1.05;;
67278;SDS011;54193;53.746;10.058;2022-07-10T16:17:52;5.53;;;1.20;;
67278;SDS011;54193;53.746;10.058;2022-07-10T16:20:38;9.02;;;1.48;;
67278;SDS011;54193;53.746;10.058;2022-07-10T16:23:23;7.45;;;1.20;;
67278;SDS011;54193;53.746;10.058;2022-07-10T16:26:09;5.95;;;1.30;;
67278;SDS011;54193;53.746;10.058;2022-07-10T16:28:56;4.32;;;1.00;;
67278;SDS011;54193;53.746;10.058;2022-07-10T16:31:42;7.13;;;1.20;;
67278;SDS011;54193;53.746;10.058;2022-07-10T16:34:28;7.83;;;1.17;;
67278;SDS011;54193;53.746;10.058;2022-07-10T16:37:14;5.68;;;1.23;;
67278;SDS011;54193;53.746;10.058;2022-07-10T16:39:59;7.43;;;1.50;;
67278;SDS011;54193;53.746;10.058;2022-07-10T16:42:45;6.38;;;1.30;;
67278;SDS011;54193;53.746;10.058;2022-07-10T16:45:32;5.32;;;1.77;;